Marit Maersk — OUJN2 — position and weather

sailwx.info

Track history (hours):
 
Tides and Currents Weather Stations Pressure Air Temp Water Temp Dewpoint Dewpoint Depression Visibility Wind Speed Wind Dir Waves Ship Positions

Marit Maersk

Last reported at 2017-Nov-06 02:29 UTC. Time now 2017-Nov-23 16:52 UTC.
Position N 37°48' W 122°19'.
Warning: this ship's position is 17 days out of date.

Length 367 m; draft 14.4 m.

Type: Ship (hazmat cat A). MMSI: 220597000.

Date/timePositionNaut miles runAvg speedWind from/ knotsBaromVisibWave heightAir tempDewpointWater temp
2017-Nov-06 02:29N 37°48' W 122°19'0 0.0
2017-Nov-06 01:59N 37°48' W 122°19'0 0.0
2017-Nov-06 01:29N 37°48' W 122°19'0 0.0
2017-Nov-06 00:59N 37°48' W 122°19'0 0.0
2017-Nov-06 00:29N 37°48' W 122°19'0 0.0
2017-Nov-05 23:59N 37°48' W 122°19'0 0.0
2017-Nov-05 23:29N 37°48' W 122°19'0 0.0
2017-Nov-05 22:59N 37°48' W 122°19'0 0.0
2017-Nov-05 22:29N 37°48' W 122°19'0 0.0
2017-Nov-05 21:59N 37°48' W 122°19'0 0.0
2017-Nov-05 21:29N 37°48' W 122°19'0 0.0
2017-Nov-05 20:59N 37°48' W 122°19'0 0.0
2017-Nov-05 20:29N 37°48' W 122°19'0 0.0
2017-Nov-05 19:59N 37°48' W 122°19'0 0.0
2017-Nov-05 19:29N 37°48' W 122°19'0 0.0
2017-Nov-05 18:59N 37°48' W 122°19'0 0.0
2017-Nov-05 18:29N 37°48' W 122°19'0 0.0
2017-Nov-05 17:59N 37°48' W 122°19'0 0.0
2017-Nov-05 17:29N 37°48' W 122°19'0 0.0
2017-Nov-05 16:59N 37°48' W 122°19'0 0.0
2017-Nov-05 16:29N 37°48' W 122°19'0 0.0
2017-Nov-05 15:59N 37°48' W 122°19'0 0.0
2017-Nov-05 15:29N 37°48' W 122°19'0 0.0
2017-Nov-05 14:59N 37°48' W 122°19'0 0.0
2017-Nov-05 14:29N 37°48' W 122°19'0 0.0
2017-Nov-05 13:59N 37°48' W 122°19'0 0.0
2017-Nov-05 13:29N 37°48' W 122°19'0 0.0
2017-Nov-05 12:59N 37°48' W 122°19'0 0.0
2017-Nov-05 12:29N 37°48' W 122°19'0 0.0
2017-Nov-05 11:59N 37°48' W 122°19'0 0.0
2017-Nov-05 11:29N 37°48' W 122°19'0 0.0
2017-Nov-05 10:59N 37°48' W 122°19'0 0.0
2017-Nov-05 10:29N 37°48' W 122°19'0 0.0
2017-Nov-05 09:59N 37°48' W 122°19'0 0.0
2017-Nov-05 09:29N 37°48' W 122°19'0 0.0
2017-Nov-05 08:59N 37°48' W 122°19'0 0.0
2017-Nov-05 08:29N 37°48' W 122°19'0 0.0
2017-Nov-05 07:59N 37°48' W 122°19'0 0.0
2017-Nov-05 07:29N 37°48' W 122°19'0 0.0
2017-Nov-05 06:59N 37°48' W 122°19'0 0.0
2017-Nov-05 06:29N 37°48' W 122°19'0 0.0
2017-Nov-05 05:59N 37°48' W 122°19'0 0.0
2017-Nov-05 05:29N 37°48' W 122°19'0 0.0
2017-Nov-05 04:59N 37°48' W 122°19'0 0.0
2017-Nov-05 04:29N 37°48' W 122°19'0 0.0
2017-Nov-05 03:59N 37°48' W 122°19'0 0.0
2017-Nov-05 03:29N 37°48' W 122°19'0 0.0
2017-Nov-05 02:59N 37°48' W 122°19'0 0.0
2017-Nov-05 02:29N 37°48' W 122°19'0 0.0
2017-Nov-05 01:59N 37°48' W 122°19'0 0.0
2017-Nov-05 01:29N 37°48' W 122°19'0 0.0
2017-Nov-05 00:59N 37°48' W 122°19'0 0.0
2017-Nov-05 00:29N 37°48' W 122°19'0 0.0
2017-Nov-04 23:59N 37°48' W 122°19'0 0.0
2017-Nov-04 23:29N 37°48' W 122°19'0 0.0
2017-Nov-04 22:59N 37°48' W 122°19'0 0.0
2017-Nov-04 22:29N 37°48' W 122°19'0 0.0
2017-Nov-04 21:59N 37°48' W 122°19'0 0.0
2017-Nov-04 21:30N 37°48' W 122°19'1 2.0
2017-Nov-04 21:00N 37°48' W 122°17'1 1.4
2017-Nov-04 20:30N 37°48' W 122°18'2 3.7
2017-Nov-04 20:00N 37°48' W 122°20'4 7.4
2017-Nov-04 19:30N 37°50' W 122°24'611.5
2017-Nov-04 19:00N 37°48' W 122°31'815.6
2017-Nov-04 18:30N 37°45' W 122°40'3 6.8
2017-Nov-04 18:00N 37°41' W 122°40'4 7.5
2017-Nov-04 17:30N 37°37' W 122°40'4 7.3
2017-Nov-04 17:00N 37°34' W 122°40'4 7.1
2017-Nov-04 16:30N 37°30' W 122°39'4 7.4
2017-Nov-04 16:00N 37°27' W 122°39'4 7.2
2017-Nov-04 15:30N 37°23' W 122°40'4 7.6
2017-Nov-04 15:00N 37°19' W 122°40'4 7.7
2017-Nov-04 14:30N 37°15' W 122°39'4 8.9
2017-Nov-04 14:00N 37°11' W 122°39'612.3
2017-Nov-04 13:30N 37°05' W 122°36'612.2
2017-Nov-04 13:00N 36°59' W 122°34'1312.1
2017-Nov-04 11:58N 36°48' W 122°28'9212.6
2017-Nov-04 04:41N 35°26' W 121°36'213.2
2017-Nov-04 04:30N 35°24' W 121°34'713.2
2017-Nov-04 04:00N 35°18' W 121°30'612.8
2017-Nov-04 03:30N 35°13' W 121°26'612.4
2017-Nov-04 03:00N 35°08' W 121°22'612.3
2017-Nov-04 02:30N 35°03' W 121°18'612.7
2017-Nov-04 02:00N 34°57' W 121°14'612.5
2017-Nov-04 01:30N 34°52' W 121°10'612.5
2017-Nov-04 01:00N 34°46' W 121°06'612.3
2017-Nov-04 00:30N 34°41' W 121°02'612.4
2017-Nov-04 00:00N 34°36' W 120°58'612.0
2017-Nov-03 23:30N 34°31' W 120°54'611.6
2017-Nov-03 22:59N 34°26' W 120°50'711.8
2017-Nov-03 22:22N 34°24' W 120°42'512.2
2017-Nov-03 21:58N 34°23' W 120°36'612.3
2017-Nov-03 21:30N 34°21' W 120°29'712.5
2017-Nov-03 20:58N 34°19' W 120°22'612.6
2017-Nov-03 20:30N 34°18' W 120°15'612.5
2017-Nov-03 20:00N 34°16' W 120°08'612.6
2017-Nov-03 19:29N 34°14' W 120°00'612.4
2017-Nov-03 18:59N 34°13' W 119°53'712.5
2017-Nov-03 18:27N 34°11' W 119°45'612.5
2017-Nov-03 17:59N 34°09' W 119°38'612.9
2017-Nov-03 17:30N 34°08' W 119°31'713.2
2017-Nov-03 16:59N 34°06' W 119°23'613.2
2017-Nov-03 16:30N 34°04' W 119°16'712.9
2017-Nov-03 16:00N 34°01' W 119°09'612.4
2017-Nov-03 15:28N 33°58' W 119°02'611.8
2017-Nov-03 15:00N 33°55' W 118°56'611.5
2017-Nov-03 14:30N 33°52' W 118°50'611.4
2017-Nov-03 14:00N 33°50' W 118°44'611.4
2017-Nov-03 13:30N 33°47' W 118°38'611.7
2017-Nov-03 13:00N 33°44' W 118°32'611.4
2017-Nov-03 12:30N 33°41' W 118°26'1211.0
2017-Nov-03 11:27N 33°39' W 118°13'  
2017-Oct-30 20:53N 33°45' W 118°14'7 5.9
2017-Oct-30 19:47N 33°39' W 118°11'10 8.2
2017-Oct-30 18:32N 33°37' W 118°23'1 9.6
2017-Oct-30 18:28N 33°37' W 118°24'510.8
2017-Oct-30 18:00N 33°40' W 118°29'611.3
2017-Oct-30 17:30N 33°43' W 118°35'611.0
2017-Oct-30 17:00N 33°45' W 118°40'510.8
2017-Oct-30 16:30N 33°48' W 118°46'611.0
2017-Oct-30 16:00N 33°51' W 118°52'511.1
2017-Oct-30 15:30N 33°54' W 118°58'611.1
2017-Oct-30 14:58N 33°57' W 119°04'1313.3
2017-Oct-30 14:00N 34°03' W 119°17'918.1
2017-Oct-30 13:29N 34°05' W 119°28'1018.3
2017-Oct-30 12:58N 34°08' W 119°39'918.4
2017-Oct-30 12:28N 34°10' W 119°50'1118.3
2017-Oct-30 11:53N 34°13' W 120°02'818.4
2017-Oct-30 11:27N 34°15' W 120°12'818.0
2017-Oct-30 10:59N 34°17' W 120°22'817.6
2017-Oct-30 10:30N 34°20' W 120°31'917.3
2017-Oct-30 10:00N 34°22' W 120°42'917.4
2017-Oct-30 09:30N 34°24' W 120°52'917.8
2017-Oct-30 09:00N 34°25' W 121°03'917.9
2017-Oct-30 08:30N 34°26' W 121°13'917.9
2017-Oct-30 07:59N 34°27' W 121°25'917.9
2017-Oct-30 07:30N 34°27' W 121°35'1218.4
2017-Oct-30 06:50N 34°29' W 121°50'818.5
2017-Oct-30 06:22N 34°29' W 122°00'718.2
2017-Oct-30 06:00N 34°30' W 122°08'1317.9
2017-Oct-30 05:16N 34°30' W 122°24'1317.9
2017-Oct-30 04:34N 34°31' W 122°40'118.1
2017-Oct-30 04:30N 34°31' W 122°41'917.8
2017-Oct-30 04:00N 34°32' W 122°52'1117.7
2017-Oct-30 03:24N 34°32' W 123°05'917.8
2017-Oct-30 02:54N 34°32' W 123°15'718.1
2017-Oct-30 02:30N 34°32' W 123°24'918.1
2017-Oct-30 02:00N 34°33' W 123°35'1117.9
2017-Oct-30 01:25N 34°33' W 123°48'717.5
2017-Oct-30 01:00N 34°34' W 123°57'1117.5
2017-Oct-30 00:24N 34°34' W 124°09'1017.6
2017-Oct-29 23:50N 34°35' W 124°22'4117.6
2017-Oct-29 21:29N 34°38' W 125°12'917.9
2017-Oct-29 21:00N 34°38' W 125°22'22820.3
2017-Oct-29 09:44N 35°01' W 129°59'3022.0
2017-Oct-29 08:23N 35°04' W 130°35'  
Track history (hours):
 
Tides and Currents Weather Stations Pressure Air Temp Water Temp Dewpoint Dewpoint Depression Visibility Wind Speed Wind Dir Waves Ship Positions

Marit Maersk

Last reported at 2017-Nov-06 02:29 UTC. Time now 2017-Nov-23 16:52 UTC.
Position N 37°48' W 122°19'.
Warning: this ship's position is 17 days out of date.

Length 367 m; draft 14.4 m.

Type: Ship (hazmat cat A). MMSI: 220597000.

Date/timePositionNaut miles runAvg speedWind from/ knotsBaromVisibWave heightAir tempDewpointWater temp
2017-Nov-06 02:29N 37°48' W 122°19'0 0.0
2017-Nov-06 01:59N 37°48' W 122°19'0 0.0
2017-Nov-06 01:29N 37°48' W 122°19'0 0.0
2017-Nov-06 00:59N 37°48' W 122°19'0 0.0
2017-Nov-06 00:29N 37°48' W 122°19'0 0.0
2017-Nov-05 23:59N 37°48' W 122°19'0 0.0
2017-Nov-05 23:29N 37°48' W 122°19'0 0.0
2017-Nov-05 22:59N 37°48' W 122°19'0 0.0
2017-Nov-05 22:29N 37°48' W 122°19'0 0.0
2017-Nov-05 21:59N 37°48' W 122°19'0 0.0
2017-Nov-05 21:29N 37°48' W 122°19'0 0.0
2017-Nov-05 20:59N 37°48' W 122°19'0 0.0
2017-Nov-05 20:29N 37°48' W 122°19'0 0.0
2017-Nov-05 19:59N 37°48' W 122°19'0 0.0
2017-Nov-05 19:29N 37°48' W 122°19'0 0.0
2017-Nov-05 18:59N 37°48' W 122°19'0 0.0
2017-Nov-05 18:29N 37°48' W 122°19'0 0.0
2017-Nov-05 17:59N 37°48' W 122°19'0 0.0
2017-Nov-05 17:29N 37°48' W 122°19'0 0.0
2017-Nov-05 16:59N 37°48' W 122°19'0 0.0
2017-Nov-05 16:29N 37°48' W 122°19'0 0.0
2017-Nov-05 15:59N 37°48' W 122°19'0 0.0
2017-Nov-05 15:29N 37°48' W 122°19'0 0.0
2017-Nov-05 14:59N 37°48' W 122°19'0 0.0
2017-Nov-05 14:29N 37°48' W 122°19'0 0.0
2017-Nov-05 13:59N 37°48' W 122°19'0 0.0
2017-Nov-05 13:29N 37°48' W 122°19'0 0.0
2017-Nov-05 12:59N 37°48' W 122°19'0 0.0
2017-Nov-05 12:29N 37°48' W 122°19'0 0.0
2017-Nov-05 11:59N 37°48' W 122°19'0 0.0
2017-Nov-05 11:29N 37°48' W 122°19'0 0.0
2017-Nov-05 10:59N 37°48' W 122°19'0 0.0
2017-Nov-05 10:29N 37°48' W 122°19'0 0.0
2017-Nov-05 09:59N 37°48' W 122°19'0 0.0
2017-Nov-05 09:29N 37°48' W 122°19'0 0.0
2017-Nov-05 08:59N 37°48' W 122°19'0 0.0
2017-Nov-05 08:29N 37°48' W 122°19'0 0.0
2017-Nov-05 07:59N 37°48' W 122°19'0 0.0
2017-Nov-05 07:29N 37°48' W 122°19'0 0.0
2017-Nov-05 06:59N 37°48' W 122°19'0 0.0
2017-Nov-05 06:29N 37°48' W 122°19'0 0.0
2017-Nov-05 05:59N 37°48' W 122°19'0 0.0
2017-Nov-05 05:29N 37°48' W 122°19'0 0.0
2017-Nov-05 04:59N 37°48' W 122°19'0 0.0
2017-Nov-05 04:29N 37°48' W 122°19'0 0.0
2017-Nov-05 03:59N 37°48' W 122°19'0 0.0
2017-Nov-05 03:29N 37°48' W 122°19'0 0.0
2017-Nov-05 02:59N 37°48' W 122°19'0 0.0
2017-Nov-05 02:29N 37°48' W 122°19'0 0.0
2017-Nov-05 01:59N 37°48' W 122°19'0 0.0
2017-Nov-05 01:29N 37°48' W 122°19'0 0.0
2017-Nov-05 00:59N 37°48' W 122°19'0 0.0
2017-Nov-05 00:29N 37°48' W 122°19'0 0.0
2017-Nov-04 23:59N 37°48' W 122°19'0 0.0
2017-Nov-04 23:29N 37°48' W 122°19'0 0.0
2017-Nov-04 22:59N 37°48' W 122°19'0 0.0
2017-Nov-04 22:29N 37°48' W 122°19'0 0.0
2017-Nov-04 21:59N 37°48' W 122°19'0 0.0
2017-Nov-04 21:30N 37°48' W 122°19'1 2.0
2017-Nov-04 21:00N 37°48' W 122°17'1 1.4
2017-Nov-04 20:30N 37°48' W 122°18'2 3.7
2017-Nov-04 20:00N 37°48' W 122°20'4 7.4
2017-Nov-04 19:30N 37°50' W 122°24'611.5
2017-Nov-04 19:00N 37°48' W 122°31'815.6
2017-Nov-04 18:30N 37°45' W 122°40'3 6.8
2017-Nov-04 18:00N 37°41' W 122°40'4 7.5
2017-Nov-04 17:30N 37°37' W 122°40'4 7.3
2017-Nov-04 17:00N 37°34' W 122°40'4 7.1
2017-Nov-04 16:30N 37°30' W 122°39'4 7.4
2017-Nov-04 16:00N 37°27' W 122°39'4 7.2
2017-Nov-04 15:30N 37°23' W 122°40'4 7.6
2017-Nov-04 15:00N 37°19' W 122°40'4 7.7
2017-Nov-04 14:30N 37°15' W 122°39'4 8.9
2017-Nov-04 14:00N 37°11' W 122°39'612.3
2017-Nov-04 13:30N 37°05' W 122°36'612.2
2017-Nov-04 13:00N 36°59' W 122°34'1312.1
2017-Nov-04 11:58N 36°48' W 122°28'9212.6
2017-Nov-04 04:41N 35°26' W 121°36'213.2
2017-Nov-04 04:30N 35°24' W 121°34'713.2
2017-Nov-04 04:00N 35°18' W 121°30'612.8
2017-Nov-04 03:30N 35°13' W 121°26'612.4
2017-Nov-04 03:00N 35°08' W 121°22'612.3
2017-Nov-04 02:30N 35°03' W 121°18'612.7
2017-Nov-04 02:00N 34°57' W 121°14'612.5
2017-Nov-04 01:30N 34°52' W 121°10'612.5
2017-Nov-04 01:00N 34°46' W 121°06'612.3
2017-Nov-04 00:30N 34°41' W 121°02'612.4
2017-Nov-04 00:00N 34°36' W 120°58'612.0
2017-Nov-03 23:30N 34°31' W 120°54'611.6
2017-Nov-03 22:59N 34°26' W 120°50'711.8
2017-Nov-03 22:22N 34°24' W 120°42'512.2
2017-Nov-03 21:58N 34°23' W 120°36'612.3
2017-Nov-03 21:30N 34°21' W 120°29'712.5
2017-Nov-03 20:58N 34°19' W 120°22'612.6
2017-Nov-03 20:30N 34°18' W 120°15'612.5
2017-Nov-03 20:00N 34°16' W 120°08'612.6
2017-Nov-03 19:29N 34°14' W 120°00'612.4
2017-Nov-03 18:59N 34°13' W 119°53'712.5
2017-Nov-03 18:27N 34°11' W 119°45'612.5
2017-Nov-03 17:59N 34°09' W 119°38'612.9
2017-Nov-03 17:30N 34°08' W 119°31'713.2
2017-Nov-03 16:59N 34°06' W 119°23'613.2
2017-Nov-03 16:30N 34°04' W 119°16'712.9
2017-Nov-03 16:00N 34°01' W 119°09'612.4
2017-Nov-03 15:28N 33°58' W 119°02'611.8
2017-Nov-03 15:00N 33°55' W 118°56'611.5
2017-Nov-03 14:30N 33°52' W 118°50'611.4
2017-Nov-03 14:00N 33°50' W 118°44'611.4
2017-Nov-03 13:30N 33°47' W 118°38'611.7
2017-Nov-03 13:00N 33°44' W 118°32'611.4
2017-Nov-03 12:30N 33°41' W 118°26'1211.0
2017-Nov-03 11:27N 33°39' W 118°13'  
2017-Oct-30 20:53N 33°45' W 118°14'7 5.9
2017-Oct-30 19:47N 33°39' W 118°11'10 8.2
2017-Oct-30 18:32N 33°37' W 118°23'1 9.6
2017-Oct-30 18:28N 33°37' W 118°24'510.8
2017-Oct-30 18:00N 33°40' W 118°29'611.3
2017-Oct-30 17:30N 33°43' W 118°35'611.0
2017-Oct-30 17:00N 33°45' W 118°40'510.8
2017-Oct-30 16:30N 33°48' W 118°46'611.0
2017-Oct-30 16:00N 33°51' W 118°52'511.1
2017-Oct-30 15:30N 33°54' W 118°58'611.1
2017-Oct-30 14:58N 33°57' W 119°04'1313.3
2017-Oct-30 14:00N 34°03' W 119°17'918.1
2017-Oct-30 13:29N 34°05' W 119°28'1018.3
2017-Oct-30 12:58N 34°08' W 119°39'918.4
2017-Oct-30 12:28N 34°10' W 119°50'1118.3
2017-Oct-30 11:53N 34°13' W 120°02'818.4
2017-Oct-30 11:27N 34°15' W 120°12'818.0
2017-Oct-30 10:59N 34°17' W 120°22'817.6
2017-Oct-30 10:30N 34°20' W 120°31'917.3
2017-Oct-30 10:00N 34°22' W 120°42'917.4
2017-Oct-30 09:30N 34°24' W 120°52'917.8
2017-Oct-30 09:00N 34°25' W 121°03'917.9
2017-Oct-30 08:30N 34°26' W 121°13'917.9
2017-Oct-30 07:59N 34°27' W 121°25'917.9
2017-Oct-30 07:30N 34°27' W 121°35'1218.4
2017-Oct-30 06:50N 34°29' W 121°50'818.5
2017-Oct-30 06:22N 34°29' W 122°00'718.2
2017-Oct-30 06:00N 34°30' W 122°08'1317.9
2017-Oct-30 05:16N 34°30' W 122°24'1317.9
2017-Oct-30 04:34N 34°31' W 122°40'118.1
2017-Oct-30 04:30N 34°31' W 122°41'917.8
2017-Oct-30 04:00N 34°32' W 122°52'1117.7
2017-Oct-30 03:24N 34°32' W 123°05'917.8
2017-Oct-30 02:54N 34°32' W 123°15'718.1
2017-Oct-30 02:30N 34°32' W 123°24'918.1
2017-Oct-30 02:00N 34°33' W 123°35'1117.9
2017-Oct-30 01:25N 34°33' W 123°48'717.5
2017-Oct-30 01:00N 34°34' W 123°57'1117.5
2017-Oct-30 00:24N 34°34' W 124°09'1017.6
2017-Oct-29 23:50N 34°35' W 124°22'4117.6
2017-Oct-29 21:29N 34°38' W 125°12'917.9
2017-Oct-29 21:00N 34°38' W 125°22'22820.3
2017-Oct-29 09:44N 35°01' W 129°59'3022.0
2017-Oct-29 08:23N 35°04' W 130°35'  

Dump ship's entire track history